createdAt,value
2023-11-30T00:00:35.384Z,9.55
2023-11-30T00:03:02.076Z,9.27
2023-11-30T00:05:28.708Z,10.45
2023-11-30T00:07:55.222Z,12.35
2023-11-30T00:10:21.739Z,9.95
2023-11-30T00:12:48.247Z,8.45
2023-11-30T00:15:14.814Z,8.80
2023-11-30T00:17:41.469Z,8.90
2023-11-30T00:20:08.617Z,11.75
2023-11-30T00:22:35.196Z,9.15
2023-11-30T00:25:01.704Z,9.70
2023-11-30T00:27:28.228Z,12.65
2023-11-30T00:29:54.774Z,9.75
2023-11-30T00:32:21.347Z,8.82
2023-11-30T00:34:47.934Z,11.05
2023-11-30T00:37:14.471Z,12.23
2023-11-30T00:39:41.007Z,9.98
2023-11-30T00:42:07.736Z,11.35
2023-11-30T00:44:34.363Z,10.88
2023-11-30T00:47:00.887Z,11.85
2023-11-30T00:49:27.457Z,9.98
2023-11-30T00:51:53.940Z,10.80
2023-11-30T00:54:20.570Z,9.70
2023-11-30T00:56:47.151Z,11.52
2023-11-30T00:59:13.669Z,11.57
2023-11-30T01:01:40.359Z,11.60
2023-11-30T01:04:07.294Z,8.23
2023-11-30T01:06:33.886Z,9.10
2023-11-30T01:09:00.541Z,10.63
2023-11-30T01:11:27.387Z,8.65
2023-11-30T01:13:53.935Z,10.18
2023-11-30T01:16:20.508Z,8.15
2023-11-30T01:18:47.245Z,7.40
2023-11-30T01:21:14.040Z,8.88
2023-11-30T01:23:41.008Z,8.00
2023-11-30T01:26:07.512Z,7.82
2023-11-30T01:28:34.085Z,5.68
2023-11-30T01:31:01.809Z,6.15
2023-11-30T01:33:28.830Z,6.55
2023-11-30T01:35:55.591Z,6.88
2023-11-30T01:38:22.146Z,6.57
2023-11-30T01:40:48.638Z,7.10
2023-11-30T01:43:18.618Z,5.75
2023-11-30T01:45:45.221Z,5.47
2023-11-30T01:48:12.379Z,6.15
2023-11-30T01:50:39.089Z,6.32
2023-11-30T01:53:05.639Z,6.43
2023-11-30T01:55:32.161Z,4.00
2023-11-30T01:57:59.558Z,3.22
2023-11-30T02:00:30.040Z,5.47
2023-11-30T02:02:58.289Z,4.80
2023-11-30T02:05:25.769Z,3.58
2023-11-30T02:07:52.254Z,4.28
2023-11-30T02:10:19.017Z,3.90
2023-11-30T02:12:45.526Z,5.78
2023-11-30T02:15:12.140Z,3.50
2023-11-30T02:17:38.715Z,3.60
2023-11-30T02:20:07.021Z,3.00
2023-11-30T02:25:01.080Z,2.78
2023-11-30T02:27:27.710Z,2.22
2023-11-30T02:29:54.278Z,2.78
2023-11-30T02:32:20.802Z,3.05
2023-11-30T02:34:47.301Z,3.83
2023-11-30T02:37:13.846Z,3.25
2023-11-30T02:39:40.376Z,3.03
2023-11-30T02:42:07.061Z,2.17
2023-11-30T02:44:33.663Z,5.60
2023-11-30T02:47:00.190Z,3.25
2023-11-30T02:49:26.737Z,2.75
2023-11-30T02:51:53.311Z,1.85
2023-11-30T02:54:19.974Z,2.30
2023-11-30T02:56:46.548Z,2.80
2023-11-30T02:59:13.259Z,1.60
2023-11-30T03:01:46.596Z,2.13
2023-11-30T03:04:13.373Z,1.50
2023-11-30T03:06:43.540Z,1.92
2023-11-30T03:09:11.751Z,1.67
2023-11-30T03:14:06.616Z,1.10
2023-11-30T03:16:33.168Z,1.85
2023-11-30T03:19:10.852Z,1.10
2023-11-30T03:21:43.299Z,1.48
2023-11-30T03:24:09.964Z,1.23
2023-11-30T03:26:36.572Z,1.27
2023-11-30T03:29:03.127Z,1.00
2023-11-30T03:31:29.699Z,1.10
2023-11-30T03:33:56.248Z,0.50
2023-11-30T03:36:22.803Z,1.35
2023-11-30T03:38:54.757Z,1.65
2023-11-30T03:41:22.237Z,1.05
2023-11-30T03:43:49.205Z,1.02
2023-11-30T03:46:16.417Z,1.88
2023-11-30T03:48:43.011Z,0.98
2023-11-30T03:51:09.768Z,1.98
2023-11-30T03:53:36.282Z,1.33
2023-11-30T03:56:03.428Z,2.00
2023-11-30T03:58:30.002Z,0.93
2023-11-30T04:00:56.788Z,1.15
2023-11-30T04:03:23.358Z,1.02
2023-11-30T04:05:50.037Z,2.22
2023-11-30T04:08:16.575Z,0.90
2023-11-30T04:10:43.082Z,1.30
2023-11-30T04:13:09.870Z,1.60
2023-11-30T04:15:36.419Z,1.75
2023-11-30T04:18:03.529Z,1.83
2023-11-30T04:20:30.106Z,1.45
2023-11-30T04:22:56.651Z,1.52
2023-11-30T04:25:23.614Z,1.17
2023-11-30T04:27:50.209Z,2.42
2023-11-30T04:30:16.893Z,1.17
2023-11-30T04:32:43.550Z,0.82
2023-11-30T04:35:10.327Z,0.85
2023-11-30T04:37:36.888Z,1.33
2023-11-30T04:40:04.278Z,1.35
2023-11-30T04:42:30.858Z,1.08
2023-11-30T04:47:47.890Z,1.35
2023-11-30T04:50:14.545Z,0.98
2023-11-30T04:52:41.156Z,2.15
2023-11-30T04:55:08.854Z,1.00
2023-11-30T04:57:35.425Z,1.42
2023-11-30T05:00:02.267Z,1.42
2023-11-30T05:02:28.868Z,1.85
2023-11-30T05:04:55.540Z,1.25
2023-11-30T05:07:22.095Z,1.65
2023-11-30T05:09:48.602Z,1.20
2023-11-30T05:12:15.362Z,0.57
2023-11-30T05:14:41.885Z,1.25
2023-11-30T05:17:08.477Z,2.15
2023-11-30T05:19:35.080Z,0.85
2023-11-30T05:22:01.583Z,1.02
2023-11-30T05:24:28.113Z,1.38
2023-11-30T05:26:54.647Z,1.65
2023-11-30T05:29:21.210Z,2.28
2023-11-30T05:31:47.759Z,2.28
2023-11-30T05:34:14.402Z,1.20
2023-11-30T05:36:40.922Z,0.73
2023-11-30T05:39:07.742Z,1.75
2023-11-30T05:41:34.332Z,1.92
2023-11-30T05:44:00.847Z,1.10
2023-11-30T05:46:27.396Z,1.35
2023-11-30T05:48:55.387Z,2.03
2023-11-30T05:51:22.218Z,2.33
2023-11-30T05:53:48.832Z,3.15
2023-11-30T05:56:15.427Z,1.83
2023-11-30T05:58:41.946Z,1.38
2023-11-30T06:01:08.924Z,1.92
2023-11-30T06:03:35.798Z,1.58
2023-11-30T06:06:02.367Z,2.65
2023-11-30T06:08:28.954Z,2.60
2023-11-30T06:10:55.500Z,1.50
2023-11-30T06:13:25.355Z,2.33
2023-11-30T06:15:53.683Z,2.15
2023-11-30T06:18:20.476Z,4.55
2023-11-30T06:20:47.070Z,3.58
2023-11-30T06:23:13.639Z,1.65
2023-11-30T06:25:40.188Z,2.17
2023-11-30T06:28:06.675Z,2.10
2023-11-30T06:30:33.426Z,1.98
2023-11-30T06:33:00.081Z,1.83
2023-11-30T06:35:26.617Z,2.88
2023-11-30T06:37:53.147Z,3.53
2023-11-30T06:40:19.639Z,1.88
2023-11-30T06:42:46.684Z,3.78
2023-11-30T06:45:13.253Z,3.67
2023-11-30T06:47:39.844Z,3.65
2023-11-30T06:50:07.651Z,2.92
2023-11-30T06:52:34.440Z,2.63
2023-11-30T06:55:01.003Z,3.22
2023-11-30T06:57:27.567Z,5.20
2023-11-30T06:59:54.114Z,2.97
2023-11-30T07:02:20.738Z,3.65
2023-11-30T07:04:47.366Z,4.07
2023-11-30T07:07:23.637Z,5.25
2023-11-30T07:09:57.375Z,5.90
2023-11-30T07:12:23.975Z,8.07
2023-11-30T07:14:51.781Z,4.40
2023-11-30T07:17:18.723Z,4.32
2023-11-30T07:19:45.430Z,3.58
2023-11-30T07:22:12.662Z,4.55
2023-11-30T07:24:39.248Z,3.40
2023-11-30T07:27:06.079Z,2.78
2023-11-30T07:29:34.618Z,4.60
2023-11-30T07:32:01.158Z,3.55
2023-11-30T07:34:27.716Z,4.18
2023-11-30T07:36:54.207Z,5.82
2023-11-30T07:39:22.081Z,5.30
2023-11-30T07:41:50.249Z,5.38
2023-11-30T07:44:17.755Z,2.45
2023-11-30T07:46:44.357Z,4.43
2023-11-30T07:49:10.866Z,3.92
2023-11-30T07:51:37.398Z,5.80
2023-11-30T07:54:04.244Z,2.58
2023-11-30T07:56:30.757Z,3.38
2023-11-30T07:58:57.267Z,5.03
2023-11-30T08:01:24.074Z,3.72
2023-11-30T08:03:50.691Z,3.20
2023-11-30T08:06:17.424Z,4.88
2023-11-30T08:08:44.010Z,2.95
2023-11-30T08:11:10.529Z,2.30
2023-11-30T08:13:37.125Z,5.47
2023-11-30T08:16:03.992Z,2.92
2023-11-30T08:18:32.076Z,3.88
2023-11-30T08:21:02.449Z,4.45
2023-11-30T08:23:29.339Z,2.67
2023-11-30T08:25:59.124Z,2.75
2023-11-30T08:28:25.987Z,2.88
2023-11-30T08:30:52.524Z,4.05
2023-11-30T08:33:19.333Z,3.22
2023-11-30T08:35:45.967Z,5.15
2023-11-30T08:38:12.949Z,3.83
2023-11-30T08:40:39.617Z,3.30
2023-11-30T08:43:06.184Z,2.25
2023-11-30T08:45:33.646Z,3.08
2023-11-30T08:48:00.372Z,3.83
2023-11-30T08:50:27.122Z,3.17
2023-11-30T08:52:53.650Z,3.63
2023-11-30T08:55:20.240Z,4.68
2023-11-30T08:57:47.125Z,2.95
2023-11-30T09:00:14.424Z,5.13
2023-11-30T09:02:41.112Z,3.30
2023-11-30T09:05:08.959Z,5.15
2023-11-30T09:07:35.527Z,2.85
2023-11-30T09:10:02.258Z,5.18
2023-11-30T09:12:28.898Z,2.33
2023-11-30T09:14:56.068Z,3.13
2023-11-30T09:17:22.571Z,3.47
2023-11-30T09:19:49.198Z,2.60
2023-11-30T09:22:16.342Z,3.97
2023-11-30T09:24:42.933Z,3.55
2023-11-30T09:27:09.865Z,2.80
2023-11-30T09:29:40.102Z,2.90
2023-11-30T09:32:06.826Z,4.07
2023-11-30T09:34:33.344Z,3.88
2023-11-30T09:37:00.547Z,3.53
2023-11-30T09:39:27.111Z,5.78
2023-11-30T09:41:53.687Z,3.95
2023-11-30T09:44:20.714Z,1.50
2023-11-30T09:46:47.383Z,2.50
2023-11-30T09:49:14.027Z,3.78
2023-11-30T09:51:42.860Z,4.88
2023-11-30T09:54:09.541Z,3.58
2023-11-30T09:56:36.145Z,2.70
2023-11-30T09:59:02.660Z,3.55
2023-11-30T10:01:29.362Z,3.28
2023-11-30T10:03:56.281Z,2.30
2023-11-30T10:06:23.005Z,3.47
2023-11-30T10:08:49.675Z,2.85
2023-11-30T10:11:16.389Z,3.60
2023-11-30T10:13:43.869Z,2.95
2023-11-30T10:16:11.864Z,3.97
2023-11-30T10:18:38.554Z,4.60
2023-11-30T10:21:08.626Z,5.00
2023-11-30T10:23:35.555Z,2.15
2023-11-30T10:26:03.488Z,5.15
2023-11-30T10:28:30.363Z,2.97
2023-11-30T10:31:00.763Z,2.85
2023-11-30T10:33:29.233Z,4.18
2023-11-30T10:35:58.920Z,3.10
2023-11-30T10:38:32.083Z,2.53
2023-11-30T10:41:08.318Z,3.72
2023-11-30T10:43:38.409Z,2.88
2023-11-30T10:46:08.374Z,2.13
2023-11-30T10:48:38.018Z,3.42
2023-11-30T10:51:06.894Z,2.67
2023-11-30T10:54:04.496Z,1.95
2023-11-30T10:56:33.388Z,1.58
2023-11-30T10:59:00.490Z,2.67
2023-11-30T11:01:30.192Z,3.15
2023-11-30T11:03:58.345Z,4.22
2023-11-30T11:06:28.765Z,3.72
2023-11-30T11:09:03.848Z,2.15
2023-11-30T11:11:31.283Z,2.80
2023-11-30T11:13:57.976Z,2.35
2023-11-30T11:16:45.380Z,2.00
2023-11-30T11:19:12.239Z,2.60
2023-11-30T11:21:40.811Z,2.30
2023-11-30T11:24:08.462Z,2.00
2023-11-30T11:26:48.745Z,4.40
2023-11-30T11:29:23.782Z,2.60
2023-11-30T11:31:55.076Z,2.40
2023-11-30T11:34:21.999Z,1.73
2023-11-30T11:36:49.569Z,2.63
2023-11-30T11:39:17.739Z,1.40
2023-11-30T11:44:15.884Z,2.20
2023-11-30T11:46:44.151Z,1.77
2023-11-30T11:49:10.961Z,1.95
2023-11-30T11:51:45.563Z,1.85
2023-11-30T11:54:20.421Z,1.65
2023-11-30T11:56:48.941Z,1.90
2023-11-30T11:59:28.866Z,2.35
2023-11-30T12:01:57.245Z,1.95
2023-11-30T12:04:31.647Z,2.40
2023-11-30T12:09:25.693Z,1.80
2023-11-30T12:11:52.988Z,1.17
2023-11-30T12:14:21.529Z,3.83
2023-11-30T12:16:48.302Z,1.75
2023-11-30T12:19:20.633Z,3.13
2023-11-30T12:21:47.658Z,2.78
2023-11-30T12:24:14.533Z,3.35
2023-11-30T12:26:41.270Z,2.67
2023-11-30T12:29:09.072Z,1.75
2023-11-30T12:31:35.831Z,2.83
2023-11-30T12:34:02.565Z,2.15
2023-11-30T12:36:29.391Z,1.75
2023-11-30T12:38:55.966Z,2.25
2023-11-30T12:41:22.605Z,2.40
2023-11-30T12:43:49.210Z,1.48
2023-11-30T12:46:16.267Z,2.00
2023-11-30T12:48:44.260Z,1.55
2023-11-30T12:51:10.973Z,3.15
2023-11-30T12:53:37.767Z,2.30
2023-11-30T12:56:05.310Z,1.27
2023-11-30T12:58:32.599Z,2.70
2023-11-30T13:00:59.214Z,1.40
2023-11-30T13:03:27.245Z,2.53
2023-11-30T13:05:54.052Z,1.40
2023-11-30T13:08:21.825Z,2.08
2023-11-30T13:10:48.469Z,2.17
2023-11-30T13:13:15.092Z,2.58
2023-11-30T13:15:43.102Z,3.88
2023-11-30T13:18:10.127Z,1.83
2023-11-30T13:20:36.936Z,1.73
2023-11-30T13:23:03.587Z,2.38
2023-11-30T13:25:31.216Z,1.50
2023-11-30T13:27:57.996Z,1.38
2023-11-30T13:30:26.854Z,2.20
2023-11-30T13:32:56.783Z,2.42
2023-11-30T13:35:25.015Z,2.28
2023-11-30T13:40:20.568Z,1.42
2023-11-30T13:42:47.234Z,1.67
2023-11-30T13:45:14.026Z,2.08
2023-11-30T13:47:42.779Z,1.77
2023-11-30T13:50:20.444Z,2.80
2023-11-30T13:52:56.566Z,1.30
2023-11-30T13:55:23.120Z,1.48
2023-11-30T13:57:49.708Z,1.75
2023-11-30T14:00:16.639Z,1.92
2023-11-30T14:02:43.556Z,1.75
2023-11-30T14:05:10.177Z,1.67
2023-11-30T14:07:36.952Z,3.55
2023-11-30T14:10:08.052Z,1.73
2023-11-30T14:12:35.090Z,1.23
2023-11-30T14:15:01.780Z,1.60
2023-11-30T14:17:30.977Z,1.83
2023-11-30T14:19:58.295Z,1.75
2023-11-30T14:22:25.233Z,1.30
2023-11-30T14:24:51.810Z,1.80
2023-11-30T14:27:18.408Z,1.90
2023-11-30T14:29:45.018Z,1.80
2023-11-30T14:32:11.630Z,2.30
2023-11-30T14:34:38.765Z,2.67
2023-11-30T14:37:05.366Z,1.83
2023-11-30T14:39:31.972Z,1.80
2023-11-30T14:41:58.621Z,1.83
2023-11-30T14:44:26.746Z,2.25
2023-11-30T14:46:53.651Z,1.67
2023-11-30T14:49:20.316Z,1.48
2023-11-30T14:51:47.030Z,1.70
2023-11-30T14:54:13.947Z,2.08
2023-11-30T14:56:40.910Z,2.42
2023-11-30T14:59:07.548Z,2.38
2023-11-30T15:01:34.431Z,1.48
2023-11-30T15:04:01.764Z,2.95
2023-11-30T15:06:28.808Z,2.10
2023-11-30T15:08:55.417Z,2.67
2023-11-30T15:11:22.050Z,2.13
2023-11-30T15:13:48.714Z,3.22
2023-11-30T15:16:15.328Z,2.55
2023-11-30T15:18:41.955Z,2.30
2023-11-30T15:21:08.737Z,3.03
2023-11-30T15:23:35.608Z,2.50
2023-11-30T15:26:02.176Z,3.22
2023-11-30T15:28:28.757Z,4.55
2023-11-30T15:30:55.393Z,3.88
2023-11-30T15:33:22.112Z,3.88
2023-11-30T15:35:48.738Z,4.18
2023-11-30T15:38:16.306Z,4.13
2023-11-30T15:40:43.052Z,3.95
2023-11-30T15:43:09.632Z,2.75
2023-11-30T15:45:36.204Z,5.30
2023-11-30T15:48:02.936Z,3.17
2023-11-30T15:50:29.556Z,4.47
2023-11-30T15:52:56.182Z,3.72
2023-11-30T15:55:23.363Z,3.97
2023-11-30T15:57:50.027Z,4.60
2023-11-30T16:00:17.436Z,6.13
2023-11-30T16:02:46.369Z,4.05
2023-11-30T16:05:14.650Z,4.80
2023-11-30T16:10:08.822Z,7.43
2023-11-30T16:12:35.476Z,5.68
2023-11-30T16:15:02.459Z,5.53
2023-11-30T16:17:29.106Z,7.22
2023-11-30T16:19:55.683Z,6.25
2023-11-30T16:22:22.308Z,7.82
2023-11-30T16:24:49.018Z,7.72
2023-11-30T16:27:15.844Z,8.10
2023-11-30T16:29:42.678Z,5.88
2023-11-30T16:32:09.323Z,8.55
2023-11-30T16:34:35.916Z,6.70
2023-11-30T16:37:02.835Z,4.95
2023-11-30T16:39:29.550Z,6.03
2023-11-30T16:41:57.211Z,7.65
2023-11-30T16:44:23.979Z,6.47
2023-11-30T16:46:50.639Z,7.82
2023-11-30T16:49:17.530Z,8.90
2023-11-30T16:51:49.002Z,7.78
2023-11-30T16:54:19.252Z,6.97
2023-11-30T16:56:45.883Z,7.93
2023-11-30T16:59:14.621Z,9.60
2023-11-30T17:01:41.532Z,7.22
2023-11-30T17:04:08.304Z,10.15
2023-11-30T17:06:35.011Z,10.13
2023-11-30T17:09:01.626Z,7.78
2023-11-30T17:11:31.663Z,11.23
2023-11-30T17:13:58.374Z,10.75
2023-11-30T17:16:25.272Z,10.00
2023-11-30T17:18:52.303Z,9.98
2023-11-30T17:21:19.174Z,8.40
2023-11-30T17:23:45.901Z,7.90
2023-11-30T17:26:12.609Z,9.52
2023-11-30T17:28:39.200Z,9.18
2023-11-30T17:31:06.112Z,10.30
2023-11-30T17:35:59.302Z,10.00
2023-11-30T17:38:25.912Z,6.22
2023-11-30T17:40:52.446Z,10.68
2023-11-30T17:43:19.635Z,8.60
2023-11-30T17:45:46.300Z,10.27
2023-11-30T17:48:12.899Z,9.13
2023-11-30T17:50:39.496Z,9.73
2023-11-30T17:53:06.214Z,10.00
2023-11-30T17:55:34.067Z,7.38
2023-11-30T17:58:01.061Z,7.45
2023-11-30T18:00:30.240Z,8.38
2023-11-30T18:02:57.543Z,8.73
2023-11-30T18:05:24.191Z,10.60
2023-11-30T18:07:51.126Z,10.95
2023-11-30T18:10:17.730Z,7.53
2023-11-30T18:12:44.373Z,7.35
2023-11-30T18:15:11.007Z,11.05
2023-11-30T18:17:37.629Z,11.05
2023-11-30T18:20:04.564Z,13.45
2023-11-30T18:22:33.964Z,9.90
2023-11-30T18:25:01.420Z,11.77
2023-11-30T18:27:28.376Z,11.65
2023-11-30T18:29:55.111Z,12.05
2023-11-30T18:32:21.764Z,8.95
2023-11-30T18:34:48.356Z,12.10
2023-11-30T18:37:14.996Z,11.55
2023-11-30T18:39:41.589Z,8.52
2023-11-30T18:42:08.185Z,13.75
2023-11-30T18:44:34.836Z,8.13
2023-11-30T18:47:03.067Z,12.98
2023-11-30T18:51:56.229Z,11.15
2023-11-30T18:54:22.892Z,12.20
2023-11-30T18:56:49.471Z,14.30
2023-11-30T18:59:16.062Z,19.02
2023-11-30T19:01:42.972Z,15.68
2023-11-30T19:04:09.713Z,14.45
2023-11-30T19:06:36.514Z,12.75
2023-11-30T19:09:03.921Z,14.90
2023-11-30T19:11:31.222Z,14.38
2023-11-30T19:13:57.775Z,15.57
2023-11-30T19:16:24.398Z,17.65
2023-11-30T19:18:51.698Z,14.98
2023-11-30T19:21:19.313Z,18.55
2023-11-30T19:23:49.082Z,15.98
2023-11-30T19:26:15.926Z,15.23
2023-11-30T19:28:42.698Z,18.02
2023-11-30T19:31:09.498Z,14.57
2023-11-30T19:33:36.248Z,16.52
2023-11-30T19:36:02.966Z,14.65
2023-11-30T19:38:29.622Z,15.55
2023-11-30T19:40:57.184Z,13.68
2023-11-30T19:43:25.133Z,16.85
2023-11-30T19:45:53.516Z,14.13
2023-11-30T19:48:20.561Z,16.63
2023-11-30T19:50:47.279Z,14.70
2023-11-30T19:53:13.905Z,15.48
2023-11-30T19:55:40.453Z,16.48
2023-11-30T19:58:07.154Z,14.18
2023-11-30T20:00:33.800Z,15.68
2023-11-30T20:03:00.571Z,15.65
2023-11-30T20:05:27.198Z,13.63
2023-11-30T20:07:53.827Z,16.13
2023-11-30T20:10:20.445Z,12.93
2023-11-30T20:12:49.965Z,11.38
2023-11-30T20:15:17.198Z,16.75
2023-11-30T20:17:43.818Z,13.65
2023-11-30T20:20:10.619Z,12.68
2023-11-30T20:22:37.183Z,12.63
2023-11-30T20:25:04.146Z,14.57
2023-11-30T20:27:30.802Z,12.15
2023-11-30T20:29:57.886Z,15.73
2023-11-30T20:32:25.617Z,13.40
2023-11-30T20:34:52.629Z,12.57
2023-11-30T20:37:19.216Z,14.13
2023-11-30T20:39:46.968Z,14.35
2023-11-30T20:42:13.751Z,14.20
2023-11-30T20:44:40.353Z,14.25
2023-11-30T20:47:07.093Z,14.00
2023-11-30T20:49:33.710Z,12.90
2023-11-30T20:52:00.340Z,10.70
2023-11-30T20:54:27.181Z,11.05
2023-11-30T20:56:54.097Z,12.85
2023-11-30T20:59:20.831Z,13.60
2023-11-30T21:01:47.693Z,13.13
2023-11-30T21:04:14.591Z,12.63
2023-11-30T21:06:41.261Z,14.68
2023-11-30T21:09:08.195Z,15.13
2023-11-30T21:11:39.750Z,11.90
2023-11-30T21:14:06.546Z,13.20
2023-11-30T21:16:33.229Z,13.30
2023-11-30T21:18:59.881Z,15.27
2023-11-30T21:21:26.582Z,11.85
2023-11-30T21:23:53.196Z,16.20
2023-11-30T21:26:19.883Z,13.32
2023-11-30T21:28:46.455Z,13.85
2023-11-30T21:31:13.173Z,13.50
2023-11-30T21:33:39.849Z,13.57
2023-11-30T21:36:06.850Z,15.75
2023-11-30T21:38:33.446Z,15.40
2023-11-30T21:41:00.080Z,11.18
2023-11-30T21:43:26.821Z,15.57
2023-11-30T21:45:53.404Z,12.25
2023-11-30T21:48:20.167Z,13.30
2023-11-30T21:50:46.796Z,14.15
2023-11-30T21:53:13.513Z,14.80
2023-11-30T21:55:40.829Z,14.10
2023-11-30T21:58:07.786Z,15.05
2023-11-30T22:00:34.577Z,16.00
2023-11-30T22:03:01.362Z,14.70
2023-11-30T22:05:35.821Z,14.85
2023-11-30T22:08:03.584Z,10.98
2023-11-30T22:10:30.325Z,11.55
2023-11-30T22:12:56.983Z,13.75
2023-11-30T22:15:23.659Z,14.82
2023-11-30T22:17:50.360Z,15.27
2023-11-30T22:20:17.116Z,15.57
2023-11-30T22:22:43.678Z,14.00
2023-11-30T22:25:10.422Z,12.45
2023-11-30T22:27:37.037Z,13.43
2023-11-30T22:30:04.034Z,13.80
2023-11-30T22:32:31.511Z,14.77
2023-11-30T22:34:58.146Z,13.40
2023-11-30T22:37:25.029Z,11.98
2023-11-30T22:39:51.668Z,10.70
2023-11-30T22:42:18.344Z,10.02
2023-11-30T22:44:44.998Z,11.98
2023-11-30T22:47:11.593Z,11.43
2023-11-30T22:49:38.281Z,11.30
2023-11-30T22:52:05.181Z,11.38
2023-11-30T22:54:32.087Z,11.95
2023-11-30T22:56:58.842Z,11.82
2023-11-30T22:59:25.487Z,11.98
2023-11-30T23:01:52.304Z,11.45
2023-11-30T23:04:19.204Z,11.10
2023-11-30T23:06:46.012Z,10.15
2023-11-30T23:09:12.625Z,9.93
2023-11-30T23:11:39.246Z,10.57
2023-11-30T23:14:05.992Z,10.80
2023-11-30T23:16:32.631Z,12.57
2023-11-30T23:18:59.371Z,12.18
2023-11-30T23:21:26.601Z,13.65
2023-11-30T23:23:54.276Z,13.13
2023-11-30T23:26:20.867Z,11.65
2023-11-30T23:28:47.477Z,11.75
2023-11-30T23:31:14.163Z,11.85
2023-11-30T23:33:40.862Z,12.27
2023-11-30T23:36:08.284Z,12.07
2023-11-30T23:38:34.925Z,10.88
2023-11-30T23:41:01.549Z,11.90
2023-11-30T23:43:28.197Z,13.40
2023-11-30T23:45:54.902Z,11.98
2023-11-30T23:48:21.621Z,12.40
2023-11-30T23:50:48.291Z,10.85
2023-11-30T23:53:15.052Z,10.05
2023-11-30T23:55:41.789Z,9.68
2023-11-30T23:58:08.455Z,9.68
